Terminal Aerodrome Forecast
Issued by NWS

Home | Current Version | Previous Version | Text Only | Print | Product List | Glossary On
Versions: 1 2 3 4 5 6 7 8 9 10 11 12
139
FTPA31 PHFO 281754
TAFHOG
TAF
PHOG 281754Z 2818/2918 19005KT P6SM SCT025 BKN050
     FM282000 34009KT P6SM VCSH SCT025 BKN045
     FM290400 VRB05KT P6SM VCSH SCT025 BKN045=

USA.gov is the U.S. government's official web portal to all federal, state and local government web resources and services.